Houma, LA (70363)

11:05 AM CDT on August 31, 2016 (GMT -0500)
ASHLAND NORTH | | Change Station

Elev 3 ft 29.54 °N, 90.67 °W | Updated 5 seconds ago

Partly Cloudy
Partly Cloudy
85.8 °F
Feels Like 95 °F
N
6.9
Wind Variable Wind from East
Gusts 6.9 mph

Today
High -- | Low -- °F
--% Chance of Precip.
Yesterday
High -- | Low -- °F
Precip. -- in
Pressure 29.89 in
Visibility 7.0 miles
Clouds Few 2000 ft
Heat Index 95 °F
Dew Point 75 °F
Humidity 71%
Rainfall 0.00 in
Snow Depth Not available.
6:39 AM 7:25 PM
Waning Crescent, 1% visible
METAR KHUM 311550Z 04008KT 7SM FEW020 31/25 A2989
Pressure 29.89 in
Visibility 7.0 miles
Clouds Few 2000 ft
Heat Index 95 °F
Dew Point 75 °F
Humidity 71%
Rainfall 0.00 in
Snow Depth Not available.
6:39 AM 7:25 PM
Waning Crescent, 1% visible
METAR KHUM 311550Z 04008KT 7SM FEW020 31/25 A2989

10-Day Weather Forecast

Almanac

Astronomy

Aug. 31, 2016 Rise Set
Actual Time
Civil Twilight
Nautical Twilight
Astronomical Twilight
Moon
Length of Visible Light
Length of Day
Tomorrow will be .
, % of the Moon is Illuminated

Today's Extremes

State Highs State Lows

Community

WunderPhotos

Upload Photos

1,936,102 photos uploaded!

WunderBlog® & News

Nearby

Air Quality

  Air Quality AQ Index Pollutant
Not available.

Snow Depth

Station Depth Elevation

Earthquake Activity

City Distance Mag. Time & Date
Minimum magnitude displayed is 2.5.

Coastal Water Temperatures

Place Temperature

Stations

Nearby Weather Stations

Station Location Temp. Windchill Dew Point Humidity Wind Precip. Elev Updated Type
                   

Watches & Warnings

There are currently no watches in effect.